Time;durP1;ratioP1;P1;durP2;ratioP2;P2;SDS_P1;SDS_P2;PMS_P1;PMS_P2;Temp;Humidity;BMP_temperature;BMP_pressure;BME280_temperature;BME280_humidity;BME280_pressure;Samples;Min_cycle;Max_cycle;Signal;HPM_P1;HPM_P2
2023/12/16 00:02:16;;;;;;;5.70;4.90;;;;;;;15.54;31.27;100784.13;104764;1263;67951;-65
2023/12/16 00:04:44;;;;;;;4.80;4.20;;;;;;;15.47;31.38;100786.95;104691;1259;72552;-66
2023/12/16 00:07:13;;;;;;;4.60;4.20;;;;;;;15.45;31.35;100792.84;104866;1253;60644;-68
2023/12/16 00:09:41;;;;;;;6.00;5.00;;;;;;;15.54;31.36;100794.90;104873;1257;60445;-65
2023/12/16 00:12:10;;;;;;;5.60;4.80;;;;;;;15.51;31.35;100800.38;104759;1259;72706;-66
2023/12/16 00:14:38;;;;;;;4.90;4.40;;;;;;;15.49;31.31;100803.47;104866;1254;69108;-66
2023/12/16 00:17:06;;;;;;;4.60;4.20;;;;;;;15.53;31.32;100809.29;105012;1253;72551;-65
2023/12/16 00:19:34;;;;;;;;;;;;;;;15.48;31.41;100803.15;105420;1253;60705;-64
2023/12/16 00:22:03;;;;;;;5.10;4.60;;;;;;;15.46;31.38;100802.54;104911;1253;60456;-66
2023/12/16 00:24:30;;;;;;;5.20;4.70;;;;;;;15.41;31.55;100802.05;106162;1257;73555;-64
2023/12/16 00:26:59;;;;;;;4.80;4.40;;;;;;;15.46;31.41;100794.77;104957;1254;70102;-64
2023/12/16 00:29:28;;;;;;;4.70;4.30;;;;;;;15.42;31.51;100797.56;104507;1258;71076;-64
2023/12/16 00:31:58;;;;;;;5.00;4.50;;;;;;;15.49;31.42;100798.66;105083;1256;60648;-63
2023/12/16 00:34:26;;;;;;;5.30;4.40;;;;;;;15.47;31.45;100799.83;104627;1259;60652;-65
2023/12/16 00:36:54;;;;;;;;;;;;;;;15.46;31.46;100800.95;104494;1256;74455;-63
2023/12/16 00:39:22;;;;;;;;;;;;;;;15.64;31.21;100799.41;104626;1275;69704;-64
2023/12/16 00:41:50;;;;;;;4.90;4.40;;;;;;;15.88;30.99;100804.73;105253;1258;72863;-65
2023/12/16 00:44:18;;;;;;;4.90;4.40;;;;;;;15.57;31.23;100807.49;104591;1264;61041;-65
2023/12/16 00:46:45;;;;;;;;;;;;;;;15.66;31.02;100804.27;104809;1253;60568;-64
2023/12/16 00:49:13;;;;;;;6.80;4.80;;;;;;;15.37;31.23;100803.65;104715;1258;73658;-64
2023/12/16 00:51:42;;;;;;;6.30;5.20;;;;;;;15.20;31.59;100804.74;104623;1274;69294;-63
2023/12/16 00:54:09;;;;;;;;;;;;;;;15.11;31.64;100805.11;104979;1257;71599;-63
2023/12/16 00:56:39;;;;;;;7.30;5.60;;;;;;;15.13;31.76;100796.74;105140;1254;60658;-63
2023/12/16 00:59:06;;;;;;;6.60;5.00;;;;;;;15.15;31.65;100800.17;104738;1258;60559;-63
2023/12/16 01:01:34;;;;;;;;;;;;;;;15.09;31.80;100801.67;104872;1258;72709;-65
2023/12/16 01:04:02;;;;;;;6.80;5.30;;;;;;;15.14;31.86;100803.40;104985;1253;69470;-66
2023/12/16 01:06:30;;;;;;;;;;;;;;;15.12;31.80;100802.77;105202;1253;72371;-61
2023/12/16 01:08:57;;;;;;;;;;;;;;;14.99;32.03;100797.52;104991;1267;60709;-66
2023/12/16 01:11:25;;;;;;;8.50;5.80;;;;;;;14.88;31.93;100794.08;104836;1258;60482;-66
2023/12/16 01:13:53;;;;;;;7.60;6.00;;;;;;;15.27;31.56;100797.91;104929;1258;74564;-66
2023/12/16 01:16:21;;;;;;;;;;;;;;;15.12;31.58;100794.64;104943;1252;69921;-65
2023/12/16 01:18:50;;;;;;;6.30;5.00;;;;;;;15.08;31.58;100796.06;104758;1268;72407;-67
2023/12/16 01:21:18;;;;;;;6.20;5.40;;;;;;;15.12;31.72;100793.95;105228;1253;61653;-68
2023/12/16 01:23:46;;;;;;;5.70;4.90;;;;;;;15.10;31.63;100800.58;105275;1258;60556;-66
2023/12/16 01:26:14;;;;;;;4.80;4.40;;;;;;;15.13;31.73;100798.34;104937;1257;74073;-66
2023/12/16 01:28:42;;;;;;;6.80;5.10;;;;;;;15.48;31.41;100802.27;105136;1258;70113;-66
2023/12/16 01:31:10;;;;;;;5.50;4.60;;;;;;;15.82;31.01;100798.80;104714;1259;73342;-67
2023/12/16 01:33:38;;;;;;;5.60;5.10;;;;;;;15.28;31.44;100796.77;104773;1265;60700;-66
2023/12/16 01:36:06;;;;;;;;;;;;;;;15.32;31.36;100790.27;104941;1258;60409;-65
2023/12/16 01:38:34;;;;;;;6.10;4.80;;;;;;;15.41;31.32;100781.73;105151;1259;74269;-67
2023/12/16 01:41:02;;;;;;;5.40;4.60;;;;;;;15.56;31.15;100783.16;104851;1258;70086;-66
2023/12/16 01:43:30;;;;;;;4.90;4.30;;;;;;;15.57;31.17;100786.29;104842;1256;73146;-66
2023/12/16 01:46:00;;;;;;;;;;;;;;;15.55;31.08;100792.19;104660;1264;60548;-65
2023/12/16 01:48:29;;;;;;;5.30;4.20;;;;;;;14.98;31.69;100798.08;105215;1256;60452;-67
2023/12/16 01:50:58;;;;;;;5.10;4.60;;;;;;;14.65;32.28;100798.22;107845;1253;74164;-67
2023/12/16 01:53:26;;;;;;;5.10;4.30;;;;;;;14.82;32.19;100796.80;108345;1253;69626;-65
2023/12/16 01:55:54;;;;;;;7.50;4.90;;;;;;;14.91;32.10;100799.58;108288;1254;72623;-65
2023/12/16 01:58:22;;;;;;;5.60;5.00;;;;;;;14.99;31.95;100795.20;108026;1253;60788;-66
2023/12/16 02:00:51;;;;;;;5.40;4.90;;;;;;;14.90;32.17;100799.10;108298;1254;59726;-64
2023/12/16 02:03:20;;;;;;;5.40;4.70;;;;;;;14.89;32.28;100797.04;107989;1251;74270;-65
2023/12/16 02:05:50;;;;;;;6.30;4.90;;;;;;;14.94;32.34;100796.48;108041;1255;69071;-64
2023/12/16 02:08:18;;;;;;;7.70;5.30;;;;;;;14.93;32.32;100794.74;108328;1252;72457;-64
2023/12/16 02:10:46;;;;;;;5.10;4.60;;;;;;;15.28;32.02;100796.95;108263;1253;60680;-66
2023/12/16 02:13:14;;;;;;;6.60;5.00;;;;;;;15.10;32.10;100797.89;108315;1253;58703;-65
2023/12/16 02:15:42;;;;;;;5.50;4.80;;;;;;;14.62;32.59;100802.39;108289;1254;73586;-60
2023/12/16 02:18:11;;;;;;;5.40;4.90;;;;;;;14.62;32.70;100808.23;108449;1253;69738;-66
2023/12/16 02:20:39;;;;;;;5.90;5.30;;;;;;;14.34;33.05;100814.25;108403;1254;72380;-65
2023/12/16 02:23:25;;;;;;;;;;;;;;;14.43;32.95;100811.79;108305;1252;61187;-66
2023/12/16 02:25:53;;;;;;;7.20;5.80;;;;;;;14.40;33.16;100808.20;108416;1253;59928;-66
2023/12/16 02:28:21;;;;;;;9.10;6.10;;;;;;;14.44;33.14;100811.56;108302;1253;73647;-65
2023/12/16 02:30:56;;;;;;;8.20;6.10;;;;;;;14.55;32.86;100809.55;107987;1253;69072;-65
2023/12/16 02:33:30;;;;;;;7.10;6.40;;;;;;;14.66;33.03;100813.55;107809;1255;72598;-65
2023/12/16 02:35:59;;;;;;;8.90;6.20;;;;;;;14.76;33.00;100815.95;108371;1254;60713;-64
2023/12/16 02:38:28;;;;;;;7.50;6.70;;;;;;;14.85;32.98;100822.65;108236;1255;60083;-65
2023/12/16 02:40:55;;;;;;;8.60;7.50;;;;;;;14.91;32.86;100824.85;108259;1254;73588;-64
2023/12/16 02:43:23;;;;;;;8.40;7.00;;;;;;;14.96;32.82;100822.19;108347;1252;70957;-65
2023/12/16 02:45:51;;;;;;;8.50;7.60;;;;;;;14.98;32.91;100822.12;108273;1253;72220;-65
2023/12/16 02:48:19;;;;;;;10.00;7.70;;;;;;;15.06;33.07;100817.52;108273;1254;61173;-65
2023/12/16 02:50:47;;;;;;;8.20;6.80;;;;;;;15.01;33.00;100818.96;108274;1252;59686;-64
2023/12/16 02:53:14;;;;;;;;;;;;;;;14.89;33.15;100823.86;108313;1255;73543;-65
2023/12/16 02:55:42;;;;;;;;;;;;;;;14.72;33.19;100825.84;108310;1253;69293;-65
2023/12/16 02:58:09;;;;;;;8.70;7.80;;;;;;;14.47;33.63;100831.20;108234;1254;72914;-64
2023/12/16 03:00:38;;;;;;;12.20;7.70;;;;;;;14.39;33.76;100837.52;108379;1254;60704;-67
2023/12/16 03:03:06;;;;;;;9.70;8.70;;;;;;;14.41;33.75;100840.63;108362;1253;59697;-65
2023/12/16 03:05:34;;;;;;;11.20;9.50;;;;;;;14.46;33.74;100843.08;108308;1253;73681;-65
2023/12/16 03:08:02;;;;;;;11.80;9.60;;;;;;;14.54;33.91;100838.33;108313;1253;69273;-66
2023/12/16 03:10:30;;;;;;;;;;;;;;;14.51;33.67;100837.75;108027;1253;72465;-65
2023/12/16 03:12:57;;;;;;;11.50;9.40;;;;;;;14.51;33.83;100834.62;108379;1256;60637;-64
2023/12/16 03:15:26;;;;;;;11.60;9.20;;;;;;;14.48;33.90;100835.05;108299;1257;59695;-65
2023/12/16 03:17:53;;;;;;;12.30;9.30;;;;;;;14.49;33.81;100835.73;108292;1253;74057;-65
2023/12/16 03:20:21;;;;;;;;;;;;;;;14.38;34.43;100841.27;108369;1253;70216;-65
2023/12/16 03:22:48;;;;;;;;;;;;;;;14.53;34.01;100845.27;108285;1254;72612;-65
2023/12/16 03:25:16;;;;;;;11.00;9.30;;;;;;;14.55;34.01;100847.65;108330;1253;60580;-67
2023/12/16 03:27:45;;;;;;;12.70;9.50;;;;;;;14.38;34.16;100853.08;108097;1253;59733;-65
2023/12/16 03:30:13;;;;;;;13.90;9.90;;;;;;;14.38;34.14;100854.13;108419;1254;73679;-64
2023/12/16 03:32:40;;;;;;;;;;;;;;;14.30;34.33;100856.40;108279;1254;68902;-65
2023/12/16 03:35:08;;;;;;;;;;;;;;;14.50;34.12;100861.08;108290;1253;71983;-64
2023/12/16 03:37:36;;;;;;;11.80;9.50;;;;;;;14.55;34.18;100859.64;108298;1253;60926;-65
2023/12/16 03:40:05;;;;;;;14.70;10.00;;;;;;;14.61;34.12;100862.09;108330;1252;59348;-65
2023/12/16 03:42:34;;;;;;;12.70;10.00;;;;;;;14.53;34.13;100860.46;108347;1254;73497;-65
2023/12/16 03:45:03;;;;;;;14.10;10.60;;;;;;;14.49;34.25;100862.73;108293;1252;69804;-65
2023/12/16 03:47:32;;;;;;;13.80;10.90;;;;;;;14.59;34.26;100869.94;108341;1254;72930;-66
2023/12/16 03:50:00;;;;;;;13.60;11.30;;;;;;;14.70;34.09;100866.15;108318;1253;61566;-65
2023/12/16 03:52:28;;;;;;;14.90;11.80;;;;;;;14.74;34.22;100866.30;108299;1253;58693;-65
2023/12/16 03:54:56;;;;;;;15.10;11.40;;;;;;;14.79;34.07;100870.52;108291;1252;74307;-65
2023/12/16 03:57:23;;;;;;;11.30;9.70;;;;;;;14.86;34.13;100863.58;108312;1254;71465;-65
2023/12/16 03:59:51;;;;;;;14.00;11.00;;;;;;;14.87;34.11;100858.91;108349;1253;73478;-62
2023/12/16 04:02:19;;;;;;;;;;;;;;;15.09;33.94;100861.19;108264;1254;60636;-66
2023/12/16 04:04:47;;;;;;;13.90;11.60;;;;;;;15.15;33.98;100868.02;108297;1253;59490;-65
2023/12/16 04:07:14;;;;;;;15.80;11.50;;;;;;;15.37;33.76;100871.27;108335;1253;74055;-66
2023/12/16 04:09:43;;;;;;;13.40;11.60;;;;;;;15.45;33.36;100863.36;108351;1254;68049;-65
2023/12/16 04:12:11;;;;;;;13.20;11.80;;;;;;;15.30;33.72;100871.58;108294;1252;72942;-64
2023/12/16 04:14:39;;;;;;;13.30;11.70;;;;;;;15.31;33.76;100874.73;108197;1254;60628;-66
2023/12/16 04:17:07;;;;;;;13.90;11.60;;;;;;;15.55;33.39;100878.99;108358;1253;60750;-66
2023/12/16 04:19:36;;;;;;;13.90;11.70;;;;;;;15.77;33.19;100884.21;108274;1254;74116;-65
2023/12/16 04:22:04;;;;;;;14.70;11.50;;;;;;;15.42;33.50;100885.21;108035;1254;69166;-64
2023/12/16 04:24:32;;;;;;;;;;;;;;;15.36;33.68;100889.15;108349;1254;72384;-65
2023/12/16 04:27:00;;;;;;;15.00;11.60;;;;;;;15.58;33.56;100885.92;108274;1253;58998;-67
2023/12/16 04:29:28;;;;;;;;;;;;;;;15.45;33.63;100889.84;108351;1253;60962;-65
2023/12/16 04:31:55;;;;;;;15.00;11.40;;;;;;;15.46;33.85;100894.23;108275;1254;73160;-66
2023/12/16 04:34:23;;;;;;;14.80;12.60;;;;;;;15.62;33.53;100894.39;108261;1254;68053;-65
2023/12/16 04:36:51;;;;;;;;;;;;;;;15.61;33.65;100893.76;108261;1252;72886;-66
2023/12/16 04:39:18;;;;;;;13.60;12.20;;;;;;;15.54;33.70;100897.24;108316;1254;60421;-65
2023/12/16 04:41:46;;;;;;;16.00;12.90;;;;;;;15.38;33.74;100897.20;108270;1254;59906;-65
2023/12/16 04:44:14;;;;;;;15.50;12.70;;;;;;;15.50;33.56;100897.77;108289;1253;74154;-64
2023/12/16 04:46:42;;;;;;;;;;;;;;;15.42;33.75;100896.87;108305;1252;69008;-65
2023/12/16 04:49:10;;;;;;;15.20;12.50;;;;;;;15.22;33.95;100896.30;108248;1252;72522;-65
2023/12/16 04:51:37;;;;;;;;;;;;;;;15.29;33.97;100895.67;108389;1254;60668;-64
2023/12/16 04:54:05;;;;;;;18.80;12.50;;;;;;;15.12;34.16;100883.46;108419;1252;58883;-65
2023/12/16 04:56:33;;;;;;;;;;;;;;;14.98;34.41;100880.89;108308;1254;73682;-65
2023/12/16 04:59:02;;;;;;;14.70;11.80;;;;;;;15.27;34.07;100881.77;108372;1253;69075;-64
2023/12/16 05:01:29;;;;;;;13.60;12.10;;;;;;;15.02;34.27;100886.18;108282;1253;73300;-64
2023/12/16 05:03:57;;;;;;;;;;;;;;;15.21;34.30;100892.65;108308;1253;61041;-65
2023/12/16 05:06:25;;;;;;;14.60;11.10;;;;;;;15.23;34.08;100895.92;108086;1253;59403;-65
2023/12/16 05:08:52;;;;;;;14.50;12.10;;;;;;;15.28;34.08;100900.80;108435;1252;74108;-64
2023/12/16 05:11:20;;;;;;;14.70;12.40;;;;;;;15.39;33.90;100903.69;108306;1251;69202;-65
2023/12/16 05:13:48;;;;;;;;;;;;;;;15.34;33.98;100903.40;108309;1252;72999;-65
2023/12/16 05:16:18;;;;;;;14.90;12.40;;;;;;;15.39;33.89;100898.42;107640;1251;1027046;-66
2023/12/16 05:19:31;;;;;;;18.90;14.20;;;;;;;15.05;35.84;100887.45;101611;1295;600821;-64
2023/12/16 05:21:59;;;;;;;;;;;;;;;16.65;32.34;100891.67;104068;1267;59430;-65
2023/12/16 05:24:27;;;;;;;15.80;13.10;;;;;;;16.57;32.26;100897.34;103519;1267;59429;-65
2023/12/16 05:26:55;;;;;;;17.60;13.10;;;;;;;16.46;32.37;100899.64;103913;1267;72289;-65
2023/12/16 05:29:23;;;;;;;18.60;14.30;;;;;;;16.25;32.53;100902.23;103348;1269;69326;-64
2023/12/16 05:31:51;;;;;;;16.70;13.80;;;;;;;16.12;32.73;100896.63;103906;1270;72390;-64
2023/12/16 05:34:18;;;;;;;;;;;;;;;16.18;32.56;100890.69;103905;1275;350392;-65
2023/12/16 05:36:47;;;;;;;17.20;13.30;;;;;;;16.21;32.49;100897.60;104099;1269;59824;-65
2023/12/16 05:39:16;;;;;;;15.40;12.70;;;;;;;16.21;32.37;100899.41;104180;1261;72897;-65
2023/12/16 05:41:45;;;;;;;17.40;14.10;;;;;;;16.18;32.35;100906.42;104626;1266;69071;-65
2023/12/16 05:44:13;;;;;;;15.30;13.20;;;;;;;16.12;32.50;100912.73;104569;1260;72359;-66
2023/12/16 05:46:41;;;;;;;;;;;;;;;16.00;32.76;100912.02;104426;1261;61007;-65
2023/12/16 05:49:09;;;;;;;17.70;14.10;;;;;;;15.93;32.86;100912.19;104207;1273;59771;-66
2023/12/16 05:51:41;;;;;;;16.30;13.30;;;;;;;15.81;32.96;100914.31;104263;1264;72826;-66
2023/12/16 05:54:08;;;;;;;18.40;13.40;;;;;;;15.65;33.17;100914.97;104061;1267;68159;-64
2023/12/16 05:56:36;;;;;;;;;;;;;;;15.51;33.16;100923.87;104155;1264;72573;-64
2023/12/16 05:59:04;;;;;;;15.80;12.50;;;;;;;15.50;33.34;100926.74;104297;1264;61611;-65
2023/12/16 06:01:33;;;;;;;19.30;13.90;;;;;;;15.53;33.25;100934.73;104031;1268;59781;-64
2023/12/16 06:04:00;;;;;;;;;;;;;;;15.51;33.45;100931.80;104092;1277;71919;-66
2023/12/16 06:06:30;;;;;;;19.00;13.50;;;;;;;15.73;33.17;100932.50;104237;1266;69725;-65
2023/12/16 06:08:57;;;;;;;19.40;14.40;;;;;;;15.71;33.13;100935.37;104177;1263;72486;-64
2023/12/16 06:11:25;;;;;;;18.30;14.10;;;;;;;15.67;33.14;100931.32;104302;1269;59740;-60
2023/12/16 06:13:53;;;;;;;19.10;14.50;;;;;;;15.38;33.49;100932.73;103990;1264;60101;-68
2023/12/16 06:16:21;;;;;;;18.40;13.70;;;;;;;15.43;33.46;100933.03;104345;1267;73312;-67
2023/12/16 06:18:50;;;;;;;18.60;13.80;;;;;;;15.93;32.89;100931.62;104392;1282;70035;-68
2023/12/16 06:21:19;;;;;;;18.90;14.40;;;;;;;15.47;33.53;100937.46;104455;1264;72937;-67
2023/12/16 06:23:47;;;;;;;16.40;12.30;;;;;;;15.62;33.43;100933.64;104307;1266;60562;-67
2023/12/16 06:26:15;;;;;;;17.70;12.90;;;;;;;15.76;33.19;100928.25;104063;1269;59617;-68
2023/12/16 06:28:44;;;;;;;17.80;14.20;;;;;;;15.81;33.21;100929.48;104204;1270;73293;-67
2023/12/16 06:31:16;;;;;;;15.60;13.20;;;;;;;15.71;33.12;100932.73;104265;1270;70160;-68
2023/12/16 06:33:44;;;;;;;13.60;11.30;;;;;;;15.47;33.59;100940.81;104452;1263;72433;-69
2023/12/16 06:36:11;;;;;;;15.10;11.80;;;;;;;15.10;34.01;100950.13;104194;1264;60654;-66
2023/12/16 06:38:39;;;;;;;15.00;11.70;;;;;;;15.20;34.01;100953.07;103781;1279;59823;-66
2023/12/16 06:41:07;;;;;;;;;;;;;;;15.20;33.90;100955.55;104127;1269;72804;-67
2023/12/16 06:43:35;;;;;;;15.00;11.60;;;;;;;15.24;34.02;100956.61;104234;1266;69340;-66
2023/12/16 06:46:03;;;;;;;14.90;12.50;;;;;;;15.05;34.15;100960.76;104054;1267;75237;-63
2023/12/16 06:48:40;;;;;;;16.00;12.50;;;;;;;15.13;34.13;100961.13;104226;1260;60603;-65
2023/12/16 06:51:08;;;;;;;17.00;12.70;;;;;;;15.14;34.23;100962.87;104017;1264;59811;-64
2023/12/16 06:53:36;;;;;;;16.00;12.20;;;;;;;15.22;34.01;100959.36;104057;1264;72983;-63
2023/12/16 06:56:05;;;;;;;15.70;12.60;;;;;;;15.23;34.05;100954.04;104198;1266;69785;-63
2023/12/16 06:58:34;;;;;;;18.90;13.40;;;;;;;15.40;33.89;100955.09;104434;1264;73307;-62
2023/12/16 07:01:03;;;;;;;18.20;12.70;;;;;;;15.42;33.97;100954.81;104453;1259;61142;-63
2023/12/16 07:03:30;;;;;;;16.70;12.50;;;;;;;15.39;33.96;100956.17;104186;1257;59793;-62
2023/12/16 07:05:58;;;;;;;14.40;11.70;;;;;;;15.52;33.83;100951.19;104937;1261;72037;-62
2023/12/16 07:08:26;;;;;;;15.80;12.80;;;;;;;15.50;33.79;100955.72;104100;1264;69237;-60
2023/12/16 07:10:54;;;;;;;16.40;13.70;;;;;;;15.47;33.74;100961.33;104310;1263;72415;-60
2023/12/16 07:13:22;;;;;;;16.50;13.40;;;;;;;15.10;34.21;100959.13;104259;1280;59852;-61
2023/12/16 07:15:51;;;;;;;15.80;12.50;;;;;;;15.29;34.02;100963.84;104276;1260;59703;-62
2023/12/16 07:18:19;;;;;;;15.60;12.80;;;;;;;15.23;34.16;100965.83;104304;1264;71895;-64
2023/12/16 07:20:47;;;;;;;17.40;13.10;;;;;;;15.30;34.22;100966.11;104684;1263;70352;-62
2023/12/16 07:23:15;;;;;;;17.50;13.40;;;;;;;15.40;34.16;100964.29;104296;1261;72535;-59
2023/12/16 07:25:43;;;;;;;16.00;12.50;;;;;;;15.36;34.15;100965.30;104146;1263;61410;-61
2023/12/16 07:28:12;;;;;;;16.70;13.50;;;;;;;15.39;34.12;100946.82;104387;1261;61419;-61
2023/12/16 07:30:41;;;;;;;14.90;12.60;;;;;;;15.48;33.95;100961.80;104164;1260;74776;-62
2023/12/16 07:33:09;;;;;;;17.00;13.40;;;;;;;15.48;34.08;100965.35;104167;1263;70580;-61
2023/12/16 07:35:38;;;;;;;16.10;12.50;;;;;;;15.55;33.93;100969.98;104306;1261;72445;-62
2023/12/16 07:38:08;;;;;;;15.70;12.40;;;;;;;15.69;33.82;100971.55;104329;1261;60194;-62
2023/12/16 07:40:36;;;;;;;18.70;13.30;;;;;;;15.66;33.92;100971.30;104229;1264;59933;-60
2023/12/16 07:43:05;;;;;;;19.70;13.30;;;;;;;15.64;34.07;100970.86;104317;1261;72882;-63
2023/12/16 07:45:35;;;;;;;17.30;12.80;;;;;;;15.56;34.25;100976.50;104670;1260;69680;-61
2023/12/16 07:48:03;;;;;;;17.00;13.30;;;;;;;15.74;34.17;100982.61;104383;1260;73022;-62
2023/12/16 07:50:34;;;;;;;16.10;12.70;;;;;;;16.24;33.77;100982.73;104234;1263;60669;-62
2023/12/16 07:53:07;;;;;;;16.40;13.80;;;;;;;16.23;33.47;100984.56;104753;1274;60676;-61
2023/12/16 07:55:41;;;;;;;16.90;13.30;;;;;;;15.81;33.91;100981.48;105082;1261;72871;-60
2023/12/16 07:58:10;;;;;;;19.90;14.10;;;;;;;15.93;33.94;100984.82;104780;1254;69467;-61
2023/12/16 08:00:38;;;;;;;21.10;14.50;;;;;;;15.78;34.02;100983.36;104388;1260;72411;-62
2023/12/16 08:03:06;;;;;;;15.20;13.60;;;;;;;15.56;34.44;100979.52;104588;1260;60595;-61
2023/12/16 08:05:35;;;;;;;19.00;13.90;;;;;;;15.72;34.34;100981.15;104736;1257;60245;-61
2023/12/16 08:08:04;;;;;;;16.80;13.90;;;;;;;15.77;34.30;100982.15;104452;1261;73192;-61
2023/12/16 08:10:32;;;;;;;18.00;13.70;;;;;;;16.23;33.79;100972.35;105255;1254;71382;-64
2023/12/16 08:13:00;;;;;;;17.40;13.30;;;;;;;15.96;34.04;100974.78;104942;1257;71429;-61
2023/12/16 08:15:29;;;;;;;17.80;13.90;;;;;;;15.74;34.30;100979.30;105027;1256;63538;-62
2023/12/16 08:17:57;;;;;;;16.90;13.50;;;;;;;15.95;34.15;100978.91;105713;1254;59748;-61
2023/12/16 08:20:25;;;;;;;;;;;;;;;16.02;34.30;100972.41;108053;1252;72847;-62
2023/12/16 08:22:52;;;;;;;18.20;12.90;;;;;;;15.97;34.38;100974.38;108093;1254;69275;-63
2023/12/16 08:25:21;;;;;;;16.60;12.80;;;;;;;15.77;34.55;100969.25;107807;1255;72957;-65
2023/12/16 08:27:49;;;;;;;17.60;13.30;;;;;;;15.82;34.54;100967.64;106928;1256;61574;-61
2023/12/16 08:30:18;;;;;;;18.30;13.90;;;;;;;15.85;34.64;100966.27;105437;1254;59740;-60
2023/12/16 08:32:46;;;;;;;;;;;;;;;16.35;34.08;100960.31;107137;1254;72973;-61
2023/12/16 08:35:14;;;;;;;19.30;14.60;;;;;;;16.00;34.49;100951.45;105127;1253;69482;-62
2023/12/16 08:37:42;;;;;;;17.40;13.80;;;;;;;16.43;34.10;100954.48;104604;1260;73374;-61
2023/12/16 08:40:11;;;;;;;19.90;15.40;;;;;;;16.69;33.74;100958.76;104478;1256;61349;-61
2023/12/16 08:42:42;;;;;;;19.20;14.10;;;;;;;16.88;33.50;100954.99;104687;1254;59977;-59
2023/12/16 08:45:11;;;;;;;19.10;14.50;;;;;;;17.10;33.30;100958.02;105369;1257;72850;-61
2023/12/16 08:47:40;;;;;;;20.00;15.30;;;;;;;16.85;33.36;100951.08;104737;1256;71522;-66
2023/12/16 08:50:09;;;;;;;19.40;15.20;;;;;;;16.64;33.68;100944.48;104966;1256;72505;-60
2023/12/16 08:52:37;;;;;;;20.10;15.00;;;;;;;16.63;33.83;100944.00;104570;1256;60588;-61
2023/12/16 08:55:06;;;;;;;21.00;14.40;;;;;;;16.69;33.74;100942.98;104496;1258;59624;-61
2023/12/16 08:57:34;;;;;;;21.40;14.70;;;;;;;16.62;33.83;100941.92;104676;1258;74790;-62
2023/12/16 09:00:03;;;;;;;18.50;15.00;;;;;;;16.66;33.78;100940.11;104702;1260;69443;-63
2023/12/16 09:02:31;;;;;;;18.90;15.10;;;;;;;16.59;33.93;100933.20;105080;1254;74758;-60
2023/12/16 09:04:59;;;;;;;20.20;14.70;;;;;;;16.80;33.84;100934.89;104451;1257;59778;-62
2023/12/16 09:07:27;;;;;;;20.80;15.00;;;;;;;16.75;33.86;100941.45;105387;1254;59721;-60
2023/12/16 09:09:55;;;;;;;19.60;15.00;;;;;;;16.73;33.96;100935.21;104697;1258;75345;-61
2023/12/16 09:12:23;;;;;;;20.50;15.50;;;;;;;17.09;33.81;100928.85;104480;1256;71679;-62
2023/12/16 09:14:52;;;;;;;17.90;14.30;;;;;;;17.07;33.58;100925.44;108050;1254;72932;-61
2023/12/16 09:17:20;;;;;;;18.20;14.80;;;;;;;16.93;33.76;100925.02;107823;1254;60574;-61
2023/12/16 09:19:48;;;;;;;20.80;14.30;;;;;;;16.77;34.06;100928.23;108205;1252;59915;-62
2023/12/16 09:22:19;;;;;;;17.00;14.70;;;;;;;17.06;33.68;100926.73;108075;1254;73765;-61
2023/12/16 09:24:47;;;;;;;17.90;14.80;;;;;;;16.91;34.09;100930.27;108062;1254;69220;-60
2023/12/16 09:27:15;;;;;;;16.80;14.00;;;;;;;17.25;33.59;100931.81;108175;1253;73013;-61
2023/12/16 09:29:43;;;;;;;;;;;;;;;17.02;33.81;100938.95;107750;1254;59147;-61
2023/12/16 09:32:11;;;;;;;19.60;14.60;;;;;;;17.02;34.12;100934.86;107755;1253;59590;-62
2023/12/16 09:34:39;;;;;;;;;;;;;;;16.92;34.01;100932.37;108056;1253;73503;-60
2023/12/16 09:37:08;;;;;;;18.90;13.50;;;;;;;16.79;34.17;100932.80;108073;1253;69848;-61
2023/12/16 09:39:36;;;;;;;19.90;14.40;;;;;;;16.77;34.14;100935.36;108177;1252;72412;-61
2023/12/16 09:42:04;;;;;;;19.00;14.90;;;;;;;17.18;33.90;100933.02;108172;1254;61035;-60
2023/12/16 09:44:35;;;;;;;17.00;14.40;;;;;;;17.15;33.72;100931.75;107567;1253;62133;-61
2023/12/16 09:47:04;;;;;;;17.10;13.70;;;;;;;17.06;33.86;100932.58;107754;1253;73365;-62
2023/12/16 09:49:34;;;;;;;18.30;15.00;;;;;;;16.84;34.05;100930.05;107839;1257;69479;-61
2023/12/16 09:52:03;;;;;;;16.20;14.40;;;;;;;16.83;34.13;100928.34;107814;1254;72388;-62
2023/12/16 09:54:31;;;;;;;19.90;15.50;;;;;;;16.85;34.22;100934.09;107774;1253;60580;-61
2023/12/16 09:56:59;;;;;;;;;;;;;;;16.81;34.22;100931.11;108215;1254;59751;-62
2023/12/16 09:59:31;;;;;;;17.30;13.80;;;;;;;16.95;33.98;100932.02;107851;1253;76002;-62
2023/12/16 10:02:02;;;;;;;;;;;;;;;16.84;34.30;100929.03;108286;1253;69205;-69
2023/12/16 10:04:29;;;;;;;18.00;14.40;;;;;;;16.93;34.22;100930.19;107931;1254;71585;-69
2023/12/16 10:06:57;;;;;;;17.80;13.80;;;;;;;16.81;34.35;100922.60;107682;1254;58964;-70
2023/12/16 10:09:25;;;;;;;17.10;14.10;;;;;;;16.73;34.43;100917.66;108017;1252;61759;-71
2023/12/16 10:11:56;;;;;;;;;;;;;;;16.67;34.58;100915.80;108156;1254;74207;-70
2023/12/16 10:14:23;;;;;;;21.10;15.40;;;;;;;16.59;34.66;100909.82;108156;1253;69520;-70
2023/12/16 10:17:02;;;;;;;17.20;14.50;;;;;;;16.75;34.68;100910.68;108104;1252;72441;-70
2023/12/16 10:19:30;;;;;;;20.00;15.40;;;;;;;17.05;34.32;100908.33;107773;1254;59674;-69
2023/12/16 10:21:58;;;;;;;16.90;13.70;;;;;;;17.18;34.08;100902.19;107995;1253;60668;-69
2023/12/16 10:24:25;;;;;;;;;;;;;;;16.76;34.38;100896.09;108093;1254;73923;-70
2023/12/16 10:26:53;;;;;;;18.60;14.20;;;;;;;16.75;34.54;100893.83;108007;1253;68944;-69
2023/12/16 10:29:20;;;;;;;19.80;14.30;;;;;;;16.67;34.74;100888.77;108008;1254;73394;-69
2023/12/16 10:31:48;;;;;;;21.30;15.80;;;;;;;16.67;34.69;100886.61;107952;1254;60718;-70
2023/12/16 10:34:17;;;;;;;19.00;15.00;;;;;;;16.82;34.80;100888.17;107923;1254;59793;-70
2023/12/16 10:36:45;;;;;;;19.20;14.80;;;;;;;16.53;35.04;100885.15;108144;1252;74248;-70
2023/12/16 10:39:14;;;;;;;;;;;;;;;16.36;35.60;100883.67;108001;1254;69210;-70
2023/12/16 10:41:42;;;;;;;38.70;24.90;;;;;;;16.66;35.18;100880.10;108182;1253;72469;-70
2023/12/16 10:44:10;;;;;;;47.20;30.40;;;;;;;16.72;35.01;100877.00;108269;1253;59065;-71
2023/12/16 10:46:41;;;;;;;44.50;29.10;;;;;;;16.69;35.18;100873.95;108129;1253;60153;-71
2023/12/16 10:49:10;;;;;;;37.10;25.80;;;;;;;16.41;35.46;100872.80;107816;1253;73659;-70
2023/12/16 10:51:41;;;;;;;30.20;21.40;;;;;;;16.52;35.41;100872.84;107982;1253;69392;-70
2023/12/16 10:54:18;;;;;;;23.10;17.80;;;;;;;16.73;35.30;100867.04;107777;1255;73699;-67
2023/12/16 10:56:52;;;;;;;20.00;15.50;;;;;;;16.85;35.39;100868.40;108061;1253;61087;-61
2023/12/16 10:59:23;;;;;;;20.80;15.50;;;;;;;17.08;34.95;100868.48;108127;1252;58793;-63
2023/12/16 11:01:56;;;;;;;17.10;14.30;;;;;;;17.28;34.53;100869.78;107713;1253;74473;-62
2023/12/16 11:04:27;;;;;;;21.10;15.10;;;;;;;16.83;35.06;100865.33;107786;1256;70656;-63
2023/12/16 11:07:06;;;;;;;19.40;14.80;;;;;;;16.85;35.11;100862.73;107845;1253;73989;-62
2023/12/16 11:09:35;;;;;;;18.60;13.80;;;;;;;16.77;35.18;100867.35;108156;1254;59940;-65
2023/12/16 11:12:03;;;;;;;18.20;14.20;;;;;;;16.73;35.26;100865.41;108051;1254;59244;-64
2023/12/16 11:14:33;;;;;;;;;;;;;;;16.94;34.93;100860.50;108106;1252;74501;-62
2023/12/16 11:17:05;;;;;;;19.30;14.70;;;;;;;16.84;35.20;100860.67;107847;1253;70052;-64
2023/12/16 11:19:36;;;;;;;18.00;14.70;;;;;;;16.83;35.20;100855.05;107848;1256;73735;-63
2023/12/16 11:22:04;;;;;;;20.50;14.80;;;;;;;16.86;35.03;100853.49;107706;1255;60721;-65
2023/12/16 11:24:40;;;;;;;17.90;14.20;;;;;;;17.09;34.87;100855.53;107807;1256;59673;-62